Time;durP1;ratioP1;P1;durP2;ratioP2;P2;SDS_P1;SDS_P2;PMS_P1;PMS_P2;Temp;Humidity;BMP_temperature;BMP_pressure;BME280_temperature;BME280_humidity;BME280_pressure;Samples;Min_cycle;Max_cycle;Signal;HPM_P1;HPM_P2
2022/02/06 00:00:20;;;;;;;8.73;3.57;;;;;;;;;;6189708;23;20172;-90
2022/02/06 00:03:26;;;;;;;9.57;3.70;;;;;;;;;;6189483;23;20203;-91
2022/02/06 00:06:35;;;;;;;8.67;3.63;;;;;;;;;;6188246;23;20164;-90
2022/02/06 00:09:43;;;;;;;8.10;3.67;;;;;;;;;;6189147;23;20215;-92
2022/02/06 00:12:55;;;;;;;11.93;4.43;;;;;;;;;;6190086;23;20199;-91
2022/02/06 00:16:01;;;;;;;8.93;3.33;;;;;;;;;;6205906;23;20225;-92
2022/02/06 00:19:07;;;;;;;9.63;3.83;;;;;;;;;;6206931;23;20212;-91
2022/02/06 00:22:25;;;;;;;11.97;3.60;;;;;;;;;;6187386;23;20610;-90
2022/02/06 00:25:36;;;;;;;11.90;3.20;;;;;;;;;;6188371;23;20160;-92
2022/02/06 00:28:54;;;;;;;10.30;3.30;;;;;;;;;;6187577;23;20156;-92
2022/02/06 00:32:03;;;;;;;7.87;2.93;;;;;;;;;;6205026;23;20148;-91
2022/02/06 00:35:30;;;;;;;11.17;3.60;;;;;;;;;;6189233;23;20220;-91
2022/02/06 00:39:02;;;;;;;10.07;3.73;;;;;;;;;;6190580;23;20255;-92
2022/02/06 00:42:05;;;;;;;8.93;3.60;;;;;;;;;;6206097;23;20208;-91
2022/02/06 00:45:12;;;;;;;9.73;3.03;;;;;;;;;;6189975;23;20156;-92
2022/02/06 00:48:24;;;;;;;8.00;3.03;;;;;;;;;;6189827;23;20214;-91
2022/02/06 01:26:46;;;;;;;8.97;3.03;;;;;;;;;;6210155;22;20236;-92
2022/02/06 01:29:58;;;;;;;6.70;2.67;;;;;;;;;;6249193;23;20174;-91
2022/02/06 01:33:10;;;;;;;4.80;2.30;;;;;;;;;;6247608;23;20174;-92
2022/02/06 01:36:25;;;;;;;5.53;2.23;;;;;;;;;;6247449;22;20183;-92
2022/02/06 01:39:46;;;;;;;5.87;2.70;;;;;;;;;;6245508;23;20598;-92
2022/02/06 01:42:59;;;;;;;5.70;2.60;;;;;;;;;;6245125;22;20195;-92
2022/02/06 01:46:25;;;;;;;4.47;2.30;;;;;;;;;;6245271;22;20154;-90
2022/02/06 02:03:11;;;;;;;7.53;3.13;;;;;;;;;;6245551;22;20194;-90
2022/02/06 02:06:46;;;;;;;12.03;3.30;;;;;;;;;;6246363;22;20190;-90
2022/02/06 02:10:16;;;;;;;9.73;3.10;;;;;;;;;;6247400;23;20190;-92
2022/02/06 02:13:36;;;;;;;7.87;3.13;;;;;;;;;;6245390;23;20183;-90
2022/02/06 02:17:09;;;;;;;8.77;3.57;;;;;;;;;;6245475;23;20534;-92
2022/02/06 02:20:44;;;;;;;8.33;3.30;;;;;;;;;;6246470;23;20178;-91
2022/02/06 02:27:22;;;;;;;6.33;2.90;;;;;;;;;;6246534;23;20301;-90
2022/02/06 02:47:37;;;;;;;5.53;2.70;;;;;;;;;;6244932;22;20173;-91
2022/02/06 02:50:49;;;;;;;10.33;2.97;;;;;;;;;;6247785;22;20174;-91
2022/02/06 02:53:57;;;;;;;11.30;3.20;;;;;;;;;;6247358;22;20630;-93
2022/02/06 02:57:15;;;;;;;8.13;2.83;;;;;;;;;;6246394;23;20308;-93
2022/02/06 03:00:29;;;;;;;10.13;2.53;;;;;;;;;;6247703;22;20173;-90
2022/02/06 03:03:37;;;;;;;6.40;2.87;;;;;;;;;;6248327;23;20190;-91
2022/02/06 03:06:43;;;;;;;7.07;2.77;;;;;;;;;;6248041;22;20171;-91
2022/02/06 03:09:49;;;;;;;6.27;2.97;;;;;;;;;;6249123;23;20154;-94
2022/02/06 03:13:01;;;;;;;8.23;2.50;;;;;;;;;;6247478;23;20171;-91
2022/02/06 03:16:18;;;;;;;5.73;2.70;;;;;;;;;;6245552;23;20189;-92
2022/02/06 03:19:25;;;;;;;6.00;2.80;;;;;;;;;;6243320;23;20239;-93
2022/02/06 03:22:35;;;;;;;12.53;2.70;;;;;;;;;;6244814;23;20186;-92
2022/02/06 03:25:46;;;;;;;4.03;2.20;;;;;;;;;;6245057;23;20174;-91
2022/02/06 03:28:56;;;;;;;7.53;2.33;;;;;;;;;;6244126;23;20175;-93
2022/02/06 03:32:01;;;;;;;7.87;2.80;;;;;;;;;;6243487;23;20170;-91
2022/02/06 03:35:08;;;;;;;6.63;2.77;;;;;;;;;;6243858;22;20170;-92
2022/02/06 03:38:14;;;;;;;6.40;2.60;;;;;;;;;;6243466;23;20293;-91
2022/02/06 03:44:49;;;;;;;8.00;2.20;;;;;;;;;;6245218;23;20210;-92
2022/02/06 03:48:08;;;;;;;7.60;2.40;;;;;;;;;;6244416;23;20213;-90
2022/02/06 03:51:29;;;;;;;11.47;3.10;;;;;;;;;;6244341;23;20603;-90
2022/02/06 03:54:35;;;;;;;4.93;2.07;;;;;;;;;;6243692;23;20166;-90
2022/02/06 03:57:40;;;;;;;4.60;2.20;;;;;;;;;;6244652;23;20155;-91
2022/02/06 04:00:47;;;;;;;8.97;2.37;;;;;;;;;;6242313;23;20174;-92
2022/02/06 04:03:52;;;;;;;6.67;2.20;;;;;;;;;;6242649;23;20185;-91
2022/02/06 04:07:04;;;;;;;4.80;2.20;;;;;;;;;;6239007;23;20729;-92
2022/02/06 04:10:11;;;;;;;8.83;2.23;;;;;;;;;;6240776;23;20169;-90
2022/02/06 04:13:19;;;;;;;6.23;2.33;;;;;;;;;;6242878;23;20174;-92
2022/02/06 04:16:38;;;;;;;5.93;2.57;;;;;;;;;;6243060;23;20175;-91
2022/02/06 04:19:44;;;;;;;5.70;2.33;;;;;;;;;;6247109;23;20166;-91
2022/02/06 04:22:50;;;;;;;7.47;2.43;;;;;;;;;;6244056;23;20207;-91
2022/02/06 04:25:55;;;;;;;12.60;2.37;;;;;;;;;;6245035;22;20178;-90
2022/02/06 04:29:07;;;;;;;6.03;2.00;;;;;;;;;;6246241;23;20186;-92
2022/02/06 04:32:14;;;;;;;7.13;1.90;;;;;;;;;;6243613;23;20171;-91
2022/02/06 04:35:29;;;;;;;6.03;1.70;;;;;;;;;;6243782;23;20154;-93
2022/02/06 04:38:50;;;;;;;6.87;2.60;;;;;;;;;;6240429;23;20174;-91
2022/02/06 04:42:14;;;;;;;9.13;2.00;;;;;;;;;;6243765;23;20162;-93
2022/02/06 04:45:56;;;;;;;5.13;1.80;;;;;;;;;;6242243;23;20278;-91
2022/02/06 05:23:10;;;;;;;6.07;2.20;;;;;;;;;;6244099;23;20170;-92
2022/02/06 05:26:42;;;;;;;12.37;2.53;;;;;;;;;;6243295;22;20234;-91
2022/02/06 05:29:56;;;;;;;7.83;2.50;;;;;;;;;;6240616;23;20274;-90
2022/02/06 05:33:02;;;;;;;2.83;1.57;;;;;;;;;;6242915;23;20170;-92
2022/02/06 05:36:10;;;;;;;11.07;2.50;;;;;;;;;;6243356;22;20150;-90
2022/02/06 05:39:16;;;;;;;4.00;1.77;;;;;;;;;;6243900;22;20171;-92
2022/02/06 05:42:22;;;;;;;7.57;1.77;;;;;;;;;;6243378;23;20166;-91
2022/02/06 05:45:27;;;;;;;9.77;2.03;;;;;;;;;;6243646;22;20186;-91
2022/02/06 05:48:33;;;;;;;3.30;1.70;;;;;;;;;;6246889;23;20158;-90
2022/02/06 05:51:38;;;;;;;5.23;1.63;;;;;;;;;;6243682;23;20165;-91
2022/02/06 05:54:45;;;;;;;4.40;1.50;;;;;;;;;;6243848;22;20170;-91
2022/02/06 05:57:50;;;;;;;12.77;3.93;;;;;;;;;;6243513;23;20159;-91
2022/02/06 06:00:55;;;;;;;6.87;1.90;;;;;;;;;;6243072;23;20240;-91
2022/02/06 06:04:00;;;;;;;6.17;1.80;;;;;;;;;;6245827;23;20198;-91
2022/02/06 06:07:06;;;;;;;4.20;1.70;;;;;;;;;;6242771;23;20171;-91
2022/02/06 06:10:14;;;;;;;7.00;1.80;;;;;;;;;;6245397;22;20142;-92
2022/02/06 06:13:20;;;;;;;3.77;1.63;;;;;;;;;;6245655;23;20166;-92
2022/02/06 06:16:26;;;;;;;6.33;1.53;;;;;;;;;;6245339;23;20174;-91
2022/02/06 06:19:34;;;;;;;6.30;2.13;;;;;;;;;;6243181;23;20158;-91
2022/02/06 06:22:39;;;;;;;6.10;1.80;;;;;;;;;;6242226;23;20162;-91
2022/02/06 06:25:50;;;;;;;7.40;1.77;;;;;;;;;;6245200;23;20183;-92
2022/02/06 06:28:55;;;;;;;8.83;1.77;;;;;;;;;;6244533;23;20281;-90
2022/02/06 06:32:00;;;;;;;8.10;1.60;;;;;;;;;;6243907;23;20171;-92
2022/02/06 06:35:06;;;;;;;3.13;1.43;;;;;;;;;;6240272;22;20174;-92
2022/02/06 06:38:13;;;;;;;7.43;1.70;;;;;;;;;;6239668;23;20162;-91
2022/02/06 06:41:20;;;;;;;6.20;1.67;;;;;;;;;;6242281;22;20174;-92
2022/02/06 06:44:25;;;;;;;5.87;1.53;;;;;;;;;;6240349;22;20304;-90
2022/02/06 06:47:30;;;;;;;6.10;1.73;;;;;;;;;;6241153;22;20260;-92
2022/02/06 06:50:35;;;;;;;4.87;1.70;;;;;;;;;;6242290;23;20174;-91
2022/02/06 06:53:43;;;;;;;20.23;2.40;;;;;;;;;;6241340;23;20217;-94
2022/02/06 06:56:55;;;;;;;5.03;1.40;;;;;;;;;;6240006;23;20166;-91
2022/02/06 07:00:21;;;;;;;6.27;1.80;;;;;;;;;;6242116;23;20220;-92
2022/02/06 07:03:27;;;;;;;4.17;1.43;;;;;;;;;;6243884;23;20170;-92
2022/02/06 07:06:33;;;;;;;9.37;1.60;;;;;;;;;;6249085;23;20170;-90
2022/02/06 07:09:38;;;;;;;7.13;1.50;;;;;;;;;;6245186;23;20166;-90
2022/02/06 07:12:46;;;;;;;5.80;1.43;;;;;;;;;;6249914;23;20190;-91
2022/02/06 07:15:53;;;;;;;6.63;1.43;;;;;;;;;;6241897;23;20186;-91
2022/02/06 07:18:58;;;;;;;6.93;1.30;;;;;;;;;;6241269;22;20609;-91
2022/02/06 07:22:03;;;;;;;6.83;1.67;;;;;;;;;;6241618;23;20171;-90
2022/02/06 07:25:09;;;;;;;6.10;1.60;;;;;;;;;;6244492;23;20246;-92
2022/02/06 07:28:18;;;;;;;4.10;1.37;;;;;;;;;;6250700;22;20233;-90
2022/02/06 07:31:27;;;;;;;4.17;1.37;;;;;;;;;;6226227;23;20163;-90
2022/02/06 07:34:32;;;;;;;5.00;1.90;;;;;;;;;;6244495;22;20224;-91
2022/02/06 07:37:37;;;;;;;6.17;1.60;;;;;;;;;;6244774;23;20645;-90
2022/02/06 07:40:44;;;;;;;13.80;1.60;;;;;;;;;;6244812;22;20604;-91
2022/02/06 07:43:51;;;;;;;9.70;1.67;;;;;;;;;;6244943;23;20159;-93
2022/02/06 07:47:05;;;;;;;6.97;1.77;;;;;;;;;;6249073;22;20208;-92
2022/02/06 07:50:11;;;;;;;5.50;1.50;;;;;;;;;;6243299;22;20178;-92
2022/02/06 07:53:18;;;;;;;5.73;1.50;;;;;;;;;;6243306;22;20251;-90
2022/02/06 07:56:23;;;;;;;8.20;1.60;;;;;;;;;;6246650;23;20211;-91
2022/02/06 07:59:30;;;;;;;3.33;1.23;;;;;;;;;;6247111;23;20178;-93
2022/02/06 08:02:35;;;;;;;6.50;1.40;;;;;;;;;;6243491;22;20178;-91
2022/02/06 08:05:41;;;;;;;7.50;1.63;;;;;;;;;;6240887;22;20198;-89
2022/02/06 08:08:46;;;;;;;5.40;1.10;;;;;;;;;;6247067;22;20261;-91
2022/02/06 08:11:51;;;;;;;11.27;3.97;;;;;;;;;;6245657;22;20221;-91
2022/02/06 08:15:00;;;;;;;9.00;2.20;;;;;;;;;;6246095;22;20213;-90
2022/02/06 08:18:05;;;;;;;6.80;1.20;;;;;;;;;;6246059;22;20213;-92
2022/02/06 08:21:11;;;;;;;5.53;1.20;;;;;;;;;;6244634;22;20245;-92
2022/02/06 08:24:19;;;;;;;14.00;1.73;;;;;;;;;;6243979;22;20190;-89
2022/02/06 08:27:26;;;;;;;4.63;1.37;;;;;;;;;;6245255;23;20602;-92
2022/02/06 08:30:38;;;;;;;5.33;1.60;;;;;;;;;;6244740;23;20175;-91
2022/02/06 08:33:43;;;;;;;4.23;1.27;;;;;;;;;;6244542;23;20157;-92
2022/02/06 08:36:49;;;;;;;1.83;1.00;;;;;;;;;;6245286;22;20174;-94
2022/02/06 08:39:54;;;;;;;3.73;1.30;;;;;;;;;;6244790;23;20157;-90
2022/02/06 08:43:00;;;;;;;11.10;1.77;;;;;;;;;;6247205;22;20211;-91
2022/02/06 08:46:07;;;;;;;6.17;1.83;;;;;;;;;;6246251;22;20263;-90
2022/02/06 08:49:18;;;;;;;5.60;1.50;;;;;;;;;;6245265;23;20244;-90
2022/02/06 08:52:23;;;;;;;9.67;1.70;;;;;;;;;;6245406;22;20170;-91
2022/02/06 08:55:28;;;;;;;5.73;1.30;;;;;;;;;;6243898;23;20495;-92
2022/02/06 08:58:35;;;;;;;8.20;1.60;;;;;;;;;;6244845;22;20159;-92
2022/02/06 09:01:42;;;;;;;7.33;1.60;;;;;;;;;;6250074;22;20170;-90
2022/02/06 09:04:48;;;;;;;8.40;2.20;;;;;;;;;;6244049;23;20201;-90
2022/02/06 09:07:54;;;;;;;5.87;1.90;;;;;;;;;;6244138;23;20233;-91
2022/02/06 09:14:28;;;;;;;9.47;2.20;;;;;;;;;;6244514;23;20154;-91
2022/02/06 09:17:36;;;;;;;7.97;1.80;;;;;;;;;;6246030;23;20171;-91
2022/02/06 09:20:41;;;;;;;4.73;1.80;;;;;;;;;;6245057;23;20161;-90
2022/02/06 09:23:48;;;;;;;5.63;1.53;;;;;;;;;;6246673;22;20202;-91
2022/02/06 09:26:53;;;;;;;7.73;1.30;;;;;;;;;;6245188;22;20190;-91
2022/02/06 09:30:00;;;;;;;6.80;1.50;;;;;;;;;;6244381;23;20175;-91
2022/02/06 09:36:14;;;;;;;7.90;1.60;;;;;;;;;;6246823;23;20209;-92
2022/02/06 09:39:19;;;;;;;10.03;1.57;;;;;;;;;;6247348;22;20151;-90
2022/02/06 09:42:26;;;;;;;8.97;2.27;;;;;;;;;;6247838;22;20205;-91
2022/02/06 09:45:33;;;;;;;6.60;1.70;;;;;;;;;;6246900;23;20197;-90
2022/02/06 09:48:41;;;;;;;8.67;1.67;;;;;;;;;;6248858;23;20174;-91
2022/02/06 09:51:46;;;;;;;4.63;1.23;;;;;;;;;;6247400;23;20221;-91
2022/02/06 09:54:52;;;;;;;12.33;1.70;;;;;;;;;;6247647;22;20194;-91
2022/02/06 09:58:11;;;;;;;5.13;1.27;;;;;;;;;;6249339;22;20166;-91
2022/02/06 10:01:19;;;;;;;7.40;1.70;;;;;;;;;;6250110;22;20153;-91
2022/02/06 10:04:27;;;;;;;7.83;2.10;;;;;;;;;;6249221;22;20154;-90
2022/02/06 10:07:42;;;;;;;7.07;1.63;;;;;;;;;;6246854;23;20622;-92
2022/02/06 10:11:02;;;;;;;6.60;2.17;;;;;;;;;;6245213;22;20178;-92
2022/02/06 10:14:11;;;;;;;5.80;1.30;;;;;;;;;;6247097;23;20555;-90
2022/02/06 10:17:18;;;;;;;6.73;1.70;;;;;;;;;;6246925;22;20169;-90
2022/02/06 10:20:34;;;;;;;6.80;2.07;;;;;;;;;;6247777;23;20296;-92
2022/02/06 10:23:47;;;;;;;6.47;1.43;;;;;;;;;;6249979;23;20203;-89
2022/02/06 10:27:17;;;;;;;4.57;1.17;;;;;;;;;;6252495;23;20213;-90
2022/02/06 10:30:36;;;;;;;7.83;1.67;;;;;;;;;;6265960;22;20169;-91
2022/02/06 10:33:50;;;;;;;6.03;1.30;;;;;;;;;;6245452;23;20606;-90
2022/02/06 10:37:10;;;;;;;5.97;1.33;;;;;;;;;;6245757;22;20169;-92
2022/02/06 10:40:18;;;;;;;5.57;1.30;;;;;;;;;;6243623;23;20154;-88
2022/02/06 10:43:23;;;;;;;5.77;1.90;;;;;;;;;;6246066;22;20166;-90
2022/02/06 10:46:29;;;;;;;5.57;1.20;;;;;;;;;;6245452;22;20193;-92
2022/02/06 10:49:35;;;;;;;8.93;1.50;;;;;;;;;;6246793;23;20190;-93
2022/02/06 10:52:42;;;;;;;8.80;1.87;;;;;;;;;;6243287;23;20162;-94
2022/02/06 10:55:54;;;;;;;3.53;1.43;;;;;;;;;;6243493;23;20170;-92
2022/02/06 10:59:00;;;;;;;6.53;1.20;;;;;;;;;;6247358;23;20153;-92
2022/02/06 11:02:07;;;;;;;3.40;1.40;;;;;;;;;;6246686;23;20249;-90
2022/02/06 11:05:19;;;;;;;4.30;1.47;;;;;;;;;;6243804;22;20280;-90
2022/02/06 11:08:29;;;;;;;8.80;1.50;;;;;;;;;;6245446;23;20218;-92
2022/02/06 11:11:35;;;;;;;4.70;1.42;;;;;;;;;;6245970;22;20171;-92
2022/02/06 11:14:47;;;;;;;5.75;1.15;;;;;;;;;;6245359;22;20262;-93
2022/02/06 11:18:12;;;;;;;5.97;1.38;;;;;;;;;;6246359;22;20155;-93
2022/02/06 11:21:19;;;;;;;5.03;1.40;;;;;;;;;;6245772;22;20170;-91
2022/02/06 11:24:26;;;;;;;2.85;1.10;;;;;;;;;;6246561;23;20162;-92
2022/02/06 11:27:32;;;;;;;5.70;1.40;;;;;;;;;;6245754;23;20244;-92
2022/02/06 11:30:38;;;;;;;4.88;1.35;;;;;;;;;;6246456;22;20174;-91
2022/02/06 11:33:43;;;;;;;9.57;1.50;;;;;;;;;;6246574;22;20154;-93
2022/02/06 11:43:59;;;;;;;4.22;1.40;;;;;;;;;;6242446;22;20457;-89
2022/02/06 11:50:26;;;;;;;4.68;1.48;;;;;;;;;;6245837;23;20213;-91
2022/02/06 11:53:38;;;;;;;6.18;1.20;;;;;;;;;;6247459;23;20171;-92
2022/02/06 11:56:49;;;;;;;3.38;1.10;;;;;;;;;;6244356;22;20166;-92
2022/02/06 12:00:13;;;;;;;5.97;1.00;;;;;;;;;;6244835;22;20162;-91
2022/02/06 12:03:18;;;;;;;4.70;1.17;;;;;;;;;;6261885;23;20194;-90
2022/02/06 12:06:27;;;;;;;3.92;1.10;;;;;;;;;;6246565;22;20197;-90
2022/02/06 12:09:33;;;;;;;4.78;1.33;;;;;;;;;;6244965;23;20170;-92
2022/02/06 12:12:40;;;;;;;4.45;1.65;;;;;;;;;;6244881;23;20201;-92
2022/02/06 12:15:53;;;;;;;7.30;1.30;;;;;;;;;;6248026;22;20233;-93
2022/02/06 12:18:59;;;;;;;8.07;1.55;;;;;;;;;;6245793;22;20178;-94
2022/02/06 12:22:19;;;;;;;4.85;0.90;;;;;;;;;;6243515;23;20158;-92
2022/02/06 12:25:28;;;;;;;3.28;0.90;;;;;;;;;;6244385;23;20201;-90
2022/02/06 12:28:41;;;;;;;4.30;1.38;;;;;;;;;;6245081;22;20221;-90
2022/02/06 12:32:00;;;;;;;3.25;1.25;;;;;;;;;;6247093;23;20222;-91
2022/02/06 12:38:29;;;;;;;4.32;1.10;;;;;;;;;;6247001;22;20190;-90
2022/02/06 12:41:34;;;;;;;4.82;1.30;;;;;;;;;;6245938;22;20162;-90
2022/02/06 12:44:44;;;;;;;5.22;1.02;;;;;;;;;;6247268;23;20203;-89
2022/02/06 12:47:49;;;;;;;4.32;0.90;;;;;;;;;;6246155;23;20170;-90
2022/02/06 12:50:55;;;;;;;3.70;0.98;;;;;;;;;;6246705;22;20243;-91
2022/02/06 12:54:03;;;;;;;3.90;1.00;;;;;;;;;;6247229;22;20242;-92
2022/02/06 12:57:09;;;;;;;4.80;1.67;;;;;;;;;;6248222;22;20203;-90
2022/02/06 13:00:28;;;;;;;3.42;1.00;;;;;;;;;;6247585;22;20162;-89
2022/02/06 13:03:41;;;;;;;4.35;1.10;;;;;;;;;;6250041;22;20162;-91
2022/02/06 13:06:47;;;;;;;5.90;1.20;;;;;;;;;;6248433;22;20191;-93
2022/02/06 13:10:00;;;;;;;2.80;1.25;;;;;;;;;;6248460;22;20219;-90
2022/02/06 13:13:10;;;;;;;5.75;1.23;;;;;;;;;;6249153;23;20215;-91
2022/02/06 13:16:34;;;;;;;11.15;1.20;;;;;;;;;;6247997;23;20281;-91
2022/02/06 13:19:56;;;;;;;1.83;0.93;;;;;;;;;;6249692;22;20167;-87
2022/02/06 13:23:17;;;;;;;2.50;0.80;;;;;;;;;;6252679;22;20217;-90
2022/02/06 13:26:35;;;;;;;1.85;0.80;;;;;;;;;;6251337;23;20282;-93
2022/02/06 13:33:41;;;;;;;6.38;1.05;;;;;;;;;;6253040;22;20170;-93
2022/02/06 13:40:45;;;;;;;5.88;1.40;;;;;;;;;;6251148;22;20171;-93
2022/02/06 13:44:12;;;;;;;4.32;1.35;;;;;;;;;;6249729;23;20174;-93
2022/02/06 13:47:33;;;;;;;3.80;0.90;;;;;;;;;;6252213;22;20213;-93
2022/02/06 13:50:45;;;;;;;2.42;1.05;;;;;;;;;;6253114;22;20166;-89
2022/02/06 13:53:55;;;;;;;8.45;1.38;;;;;;;;;;6252512;22;20202;-90
2022/02/06 13:57:05;;;;;;;4.13;0.88;;;;;;;;;;6248742;23;20167;-92
2022/02/06 14:00:12;;;;;;;1.63;0.80;;;;;;;;;;6249706;23;20166;-91
2022/02/06 14:03:26;;;;;;;2.33;0.90;;;;;;;;;;6267664;22;20162;-89
2022/02/06 14:06:38;;;;;;;1.52;0.82;;;;;;;;;;6249150;22;20182;-91
2022/02/06 14:09:57;;;;;;;2.35;0.80;;;;;;;;;;6249384;22;20190;-91
2022/02/06 14:13:03;;;;;;;3.75;0.90;;;;;;;;;;6252163;22;20198;-90
2022/02/06 14:16:12;;;;;;;3.58;1.00;;;;;;;;;;6251964;23;20175;-90
2022/02/06 14:19:36;;;;;;;4.97;1.60;;;;;;;;;;6251561;22;20174;-88
2022/02/06 14:22:48;;;;;;;9.52;3.03;;;;;;;;;;6249198;22;20230;-92
